createdAt,value
2023-01-09T00:00:35.000Z,1.9
2023-01-09T00:05:29.000Z,2.3
2023-01-09T00:10:23.000Z,1.6
2023-01-09T00:15:15.000Z,1.5
2023-01-09T00:20:10.000Z,0.9
2023-01-09T00:25:04.000Z,0.7
2023-01-09T00:29:57.000Z,0.9
2023-01-09T00:34:52.000Z,0.8
2023-01-09T00:39:46.000Z,0.4
2023-01-09T00:44:41.000Z,0.5
2023-01-09T00:49:35.000Z,0.4
2023-01-09T00:54:29.000Z,0.5
2023-01-09T00:59:23.000Z,0.3
2023-01-09T01:04:17.000Z,0.4
2023-01-09T01:09:12.000Z,0.3
2023-01-09T01:14:06.000Z,0.2
2023-01-09T01:19:01.000Z,0.2
2023-01-09T01:23:55.000Z,0.3
2023-01-09T01:28:49.000Z,0.3
2023-01-09T01:33:47.000Z,0.2
2023-01-09T01:38:35.000Z,0.2
2023-01-09T01:43:30.000Z,0.3
2023-01-09T01:48:24.000Z,0.4
2023-01-09T01:53:18.000Z,0.3
2023-01-09T01:58:11.000Z,0.3
2023-01-09T02:03:03.000Z,0.4
2023-01-09T02:07:57.000Z,0.3
2023-01-09T02:12:52.000Z,0.3
2023-01-09T02:17:45.000Z,0.3
2023-01-09T02:22:38.000Z,0.4
2023-01-09T02:27:35.000Z,0.2
2023-01-09T02:32:25.000Z,0.3
2023-01-09T02:37:19.000Z,0.3
2023-01-09T02:42:11.000Z,0.3
2023-01-09T02:47:06.000Z,0.4
2023-01-09T02:52:00.000Z,0.3
2023-01-09T02:56:54.000Z,0.3
2023-01-09T03:01:48.000Z,0.4
2023-01-09T03:06:43.000Z,0.4
2023-01-09T03:11:37.000Z,0.6
2023-01-09T03:16:32.000Z,0.6
2023-01-09T03:21:25.000Z,0.7
2023-01-09T03:26:20.000Z,0.7
2023-01-09T03:31:14.000Z,1.2
2023-01-09T03:36:09.000Z,0.7
2023-01-09T03:41:04.000Z,0.7
2023-01-09T03:45:58.000Z,0.7
2023-01-09T03:50:51.000Z,0.8
2023-01-09T03:55:44.000Z,0.6
2023-01-09T04:00:37.000Z,0.5
2023-01-09T04:05:32.000Z,0.3
2023-01-09T04:10:26.000Z,0.4
2023-01-09T04:15:20.000Z,0.4
2023-01-09T04:20:15.000Z,0.5
2023-01-09T04:25:09.000Z,0.5
2023-01-09T04:30:01.000Z,0.5
2023-01-09T04:34:55.000Z,0.6
2023-01-09T04:39:49.000Z,0.6
2023-01-09T04:44:44.000Z,0.6
2023-01-09T04:49:39.000Z,0.6
2023-01-09T04:54:33.000Z,0.6
2023-01-09T04:59:27.000Z,0.5
2023-01-09T05:04:21.000Z,0.6
2023-01-09T05:09:14.000Z,0.8
2023-01-09T05:14:08.000Z,0.9
2023-01-09T05:19:02.000Z,0.6
2023-01-09T05:23:56.000Z,0.7
2023-01-09T05:28:51.000Z,0.9
2023-01-09T05:33:46.000Z,0.8
2023-01-09T05:38:40.000Z,0.8
2023-01-09T05:43:34.000Z,0.9
2023-01-09T05:48:29.000Z,0.9
2023-01-09T05:53:23.000Z,0.8
2023-01-09T05:58:17.000Z,0.7
2023-01-09T06:03:11.000Z,0.8
2023-01-09T06:08:06.000Z,0.8
2023-01-09T06:13:00.000Z,0.7
2023-01-09T06:17:55.000Z,0.9
2023-01-09T06:22:47.000Z,0.7
2023-01-09T06:27:39.000Z,1.1
2023-01-09T06:32:34.000Z,0.7
2023-01-09T06:37:29.000Z,0.7
2023-01-09T06:42:23.000Z,0.8
2023-01-09T06:56:55.000Z,0.8
2023-01-09T07:01:49.000Z,0.6
2023-01-09T07:06:42.000Z,0.6
2023-01-09T07:21:22.000Z,0.7
2023-01-09T07:26:10.000Z,0.7
2023-01-09T07:31:04.000Z,0.6
2023-01-09T07:35:59.000Z,0.5
2023-01-09T07:50:33.000Z,0.6
2023-01-09T07:55:25.000Z,0.7
2023-01-09T08:00:20.000Z,1.4
2023-01-09T08:05:14.000Z,0.8
2023-01-09T08:10:09.000Z,0.5
2023-01-09T08:15:03.000Z,0.8
2023-01-09T08:19:57.000Z,0.5
2023-01-09T08:34:34.000Z,0.5
2023-01-09T08:39:29.000Z,0.5
2023-01-09T08:44:23.000Z,0.6
2023-01-09T08:59:00.000Z,0.6
2023-01-09T09:03:56.000Z,0.6
2023-01-09T09:08:48.000Z,0.5
2023-01-09T09:13:40.000Z,0.8
2023-01-09T09:18:34.000Z,0.5
2023-01-09T09:23:29.000Z,0.6
2023-01-09T09:28:23.000Z,0.5
2023-01-09T09:33:17.000Z,0.8
2023-01-09T09:38:11.000Z,0.3
2023-01-09T09:43:06.000Z,0.3
2023-01-09T09:48:00.000Z,0.5
2023-01-09T09:52:55.000Z,0.4
2023-01-09T09:57:49.000Z,0.4
2023-01-09T10:02:43.000Z,0.4
2023-01-09T10:07:39.000Z,0.4
2023-01-09T10:12:33.000Z,0.4
2023-01-09T10:17:28.000Z,0.7
2023-01-09T10:22:19.000Z,0.6
2023-01-09T10:27:14.000Z,0.5
2023-01-09T10:32:08.000Z,0.6
2023-01-09T10:37:03.000Z,0.5
2023-01-09T10:41:57.000Z,0.5
2023-01-09T10:46:51.000Z,0.6
2023-01-09T10:51:46.000Z,0.6
2023-01-09T10:56:40.000Z,0.4
2023-01-09T11:01:32.000Z,0.3
2023-01-09T11:06:27.000Z,0.5
2023-01-09T11:11:21.000Z,0.4
2023-01-09T11:16:16.000Z,0.6
2023-01-09T11:21:10.000Z,0.5
2023-01-09T11:26:04.000Z,0.5
2023-01-09T11:30:58.000Z,0.5
2023-01-09T11:35:52.000Z,0.3
2023-01-09T11:40:46.000Z,0.4
2023-01-09T11:45:41.000Z,0.4
2023-01-09T11:50:35.000Z,0.5
2023-01-09T11:55:30.000Z,0.3
2023-01-09T12:00:24.000Z,0.4
2023-01-09T12:05:17.000Z,0.4
2023-01-09T12:10:12.000Z,0.4
2023-01-09T12:15:06.000Z,0.6
2023-01-09T12:20:00.000Z,0.4
2023-01-09T12:24:55.000Z,0.6
2023-01-09T12:29:49.000Z,0.5
2023-01-09T12:34:42.000Z,0.5
2023-01-09T12:39:36.000Z,0.4
2023-01-09T12:44:31.000Z,0.3
2023-01-09T12:49:25.000Z,0.5
2023-01-09T12:54:20.000Z,0.3
2023-01-09T12:59:14.000Z,0.3
2023-01-09T13:04:08.000Z,0.3
2023-01-09T13:09:01.000Z,0.4
2023-01-09T13:13:55.000Z,0.3
2023-01-09T13:18:50.000Z,0.5
2023-01-09T13:23:42.000Z,0.5
2023-01-09T13:28:37.000Z,0.4
2023-01-09T13:33:31.000Z,0.3
2023-01-09T13:38:28.000Z,0.2
2023-01-09T13:43:19.000Z,0.4
2023-01-09T13:48:12.000Z,0.3
2023-01-09T13:53:07.000Z,0.4
2023-01-09T13:58:01.000Z,0.3
2023-01-09T14:02:55.000Z,0.4
2023-01-09T14:17:31.000Z,0.2
2023-01-09T14:22:25.000Z,0.2
2023-01-09T14:36:53.000Z,0.3
2023-01-09T14:41:47.000Z,1.1
2023-01-09T14:56:23.000Z,0.4
2023-01-09T15:10:54.000Z,0.6
2023-01-09T15:25:22.000Z,0.6
2023-01-09T15:30:16.000Z,0.4
2023-01-09T15:35:10.000Z,0.6
2023-01-09T15:49:39.000Z,0.4
2023-01-09T16:04:17.000Z,0.6
2023-01-09T16:18:48.000Z,0.7
2023-01-09T16:33:19.000Z,0.5
2023-01-09T16:47:55.000Z,0.8
2023-01-09T17:02:34.000Z,0.7
2023-01-09T17:17:08.000Z,0.6
2023-01-09T17:31:42.000Z,0.7
2023-01-09T17:46:17.000Z,1
2023-01-09T18:00:55.000Z,0.7
2023-01-09T18:15:27.000Z,1.6
2023-01-09T18:30:05.000Z,1.3
2023-01-09T18:44:42.000Z,1.1
2023-01-09T18:59:18.000Z,1
2023-01-09T19:13:57.000Z,1
2023-01-09T19:28:35.000Z,0.9
2023-01-09T19:43:13.000Z,1.3
2023-01-09T19:57:51.000Z,1.1
2023-01-09T20:12:27.000Z,1.2
2023-01-09T20:27:06.000Z,1.1
2023-01-09T20:41:43.000Z,1.3
2023-01-09T20:56:20.000Z,1.4
2023-01-09T21:10:51.000Z,1.3
2023-01-09T21:25:19.000Z,1.4
2023-01-09T21:39:49.000Z,1.9
2023-01-09T21:54:27.000Z,2
2023-01-09T22:09:04.000Z,1.9
2023-01-09T22:23:42.000Z,1.8
2023-01-09T22:38:20.000Z,1.8
2023-01-09T22:52:57.000Z,2.3
2023-01-09T23:07:35.000Z,3.6
2023-01-09T23:22:09.000Z,3.2
2023-01-09T23:36:47.000Z,5
2023-01-09T23:51:17.000Z,4.4
